createdAt,value
2018-06-11T00:00:40.780Z,20.8
2018-06-11T00:01:42.174Z,20.8
2018-06-11T00:02:43.566Z,20.8
2018-06-11T00:03:44.958Z,20.9
2018-06-11T00:04:46.349Z,20.9
2018-06-11T00:05:47.746Z,20.8
2018-06-11T00:06:49.137Z,20.9
2018-06-11T00:07:50.533Z,20.9
2018-06-11T00:08:51.926Z,20.9
2018-06-11T00:09:53.323Z,20.9
2018-06-11T00:10:54.708Z,20.9
2018-06-11T00:11:56.102Z,20.8
2018-06-11T00:12:57.494Z,20.9
2018-06-11T00:13:58.888Z,20.9
2018-06-11T00:15:00.285Z,20.8
2018-06-11T00:16:01.679Z,20.9
2018-06-11T00:17:03.081Z,20.9
2018-06-11T00:18:04.472Z,20.8
2018-06-11T00:19:05.863Z,20.7
2018-06-11T00:20:07.254Z,20.7
2018-06-11T00:21:08.648Z,20.7
2018-06-11T00:22:10.060Z,20.7
2018-06-11T00:23:11.438Z,20.7
2018-06-11T00:24:12.832Z,20.7
2018-06-11T00:25:14.224Z,20.7
2018-06-11T00:26:15.615Z,20.7
2018-06-11T00:27:17.003Z,20.7
2018-06-11T00:28:18.399Z,20.7
2018-06-11T00:29:19.795Z,20.7
2018-06-11T00:30:21.191Z,20.6
2018-06-11T00:31:22.584Z,20.7
2018-06-11T00:32:23.977Z,20.6
2018-06-11T00:33:25.366Z,20.6
2018-06-11T00:34:26.758Z,20.7
2018-06-11T00:35:28.208Z,20.7
2018-06-11T00:36:29.612Z,20.7
2018-06-11T00:37:31.005Z,20.7
2018-06-11T00:38:32.401Z,20.7
2018-06-11T00:39:33.945Z,20.7
2018-06-11T00:40:35.343Z,20.7
2018-06-11T00:41:36.733Z,20.7
2018-06-11T00:42:38.126Z,20.7
2018-06-11T00:43:39.518Z,20.7
2018-06-11T00:44:40.911Z,20.5
2018-06-11T00:45:42.309Z,20.6
2018-06-11T00:46:43.699Z,20.5
2018-06-11T00:47:45.090Z,20.5
2018-06-11T00:48:46.486Z,20.6
2018-06-11T00:49:47.897Z,20.6
2018-06-11T00:50:49.296Z,20.5
2018-06-11T00:51:50.686Z,20.5
2018-06-11T00:52:52.083Z,20.4
2018-06-11T00:53:53.475Z,20.5
2018-06-11T00:54:54.868Z,20.4
2018-06-11T00:55:56.261Z,20.4
2018-06-11T00:56:57.653Z,20.4
2018-06-11T00:57:59.055Z,20.3
2018-06-11T00:59:00.438Z,20.5
2018-06-11T01:00:01.833Z,20.4
2018-06-11T01:01:03.235Z,20.5
2018-06-11T01:02:04.619Z,20.5
2018-06-11T01:03:06.008Z,20.4
2018-06-11T01:04:07.400Z,20.4
2018-06-11T01:05:08.794Z,20.4
2018-06-11T01:06:10.188Z,20.3
2018-06-11T01:07:11.583Z,20.3
2018-06-11T01:08:12.971Z,20.4
2018-06-11T01:09:14.364Z,20.4
2018-06-11T01:10:15.762Z,20.4
2018-06-11T01:11:17.154Z,20.3
2018-06-11T01:12:18.545Z,20.3
2018-06-11T01:13:19.949Z,20.3
2018-06-11T01:14:21.334Z,20.2
2018-06-11T01:15:22.728Z,20.2
2018-06-11T01:16:24.115Z,20.2
2018-06-11T01:17:25.510Z,20.2
2018-06-11T01:18:26.902Z,20.2
2018-06-11T01:19:28.304Z,20.1
2018-06-11T01:20:29.704Z,20.1
2018-06-11T01:21:31.099Z,20.1
2018-06-11T01:22:32.500Z,20.1
2018-06-11T01:23:33.884Z,20.1
2018-06-11T01:24:35.275Z,20.0
2018-06-11T01:25:36.668Z,20.1
2018-06-11T01:26:38.062Z,20.1
2018-06-11T01:27:39.454Z,20.0
2018-06-11T01:28:40.850Z,20.0
2018-06-11T01:29:42.242Z,20.0
2018-06-11T01:30:43.632Z,20.0
2018-06-11T01:31:45.022Z,19.9
2018-06-11T01:32:46.415Z,20.0
2018-06-11T01:33:47.812Z,19.9
2018-06-11T01:34:49.213Z,19.9
2018-06-11T01:35:50.607Z,19.9
2018-06-11T01:36:51.998Z,19.9
2018-06-11T01:37:53.388Z,19.9
2018-06-11T01:38:54.780Z,19.9
2018-06-11T01:39:56.171Z,19.9
2018-06-11T01:40:57.563Z,19.9
2018-06-11T01:41:58.955Z,19.9
2018-06-11T01:43:00.352Z,19.9
2018-06-11T01:44:01.744Z,19.8
2018-06-11T01:45:03.133Z,19.8
2018-06-11T01:46:04.526Z,19.8
2018-06-11T01:47:05.916Z,19.7
2018-06-11T01:48:07.314Z,19.7
2018-06-11T01:49:08.705Z,19.8
2018-06-11T01:50:10.106Z,19.8
2018-06-11T01:51:11.495Z,19.8
2018-06-11T01:52:12.908Z,19.8
2018-06-11T01:53:14.302Z,19.7
2018-06-11T01:54:15.691Z,19.6
2018-06-11T01:55:17.090Z,19.7
2018-06-11T01:56:18.482Z,19.7
2018-06-11T01:57:19.872Z,19.6
2018-06-11T01:58:21.268Z,19.7
2018-06-11T01:59:22.657Z,19.7
2018-06-11T02:00:24.054Z,19.6
2018-06-11T02:01:25.446Z,19.7
2018-06-11T02:02:26.837Z,19.7
2018-06-11T02:03:28.267Z,19.6
2018-06-11T02:04:29.817Z,19.6
2018-06-11T02:05:31.208Z,19.5
2018-06-11T02:06:32.609Z,19.5
2018-06-11T02:07:33.998Z,19.5
2018-06-11T02:08:35.391Z,19.5
2018-06-11T02:09:36.783Z,19.5
2018-06-11T02:10:38.181Z,19.5
2018-06-11T02:11:39.572Z,19.5
2018-06-11T02:12:40.962Z,19.4
2018-06-11T02:13:42.353Z,19.4
2018-06-11T02:14:43.747Z,19.4
2018-06-11T02:15:45.136Z,19.3
2018-06-11T02:16:46.530Z,19.3
2018-06-11T02:17:47.926Z,19.4
2018-06-11T02:18:49.317Z,19.3
2018-06-11T02:19:50.709Z,19.3
2018-06-11T02:20:52.107Z,19.3
2018-06-11T02:21:53.510Z,19.3
2018-06-11T02:22:54.885Z,19.3
2018-06-11T02:23:56.274Z,19.3
2018-06-11T02:24:57.673Z,19.3
2018-06-11T02:25:59.070Z,19.3
2018-06-11T02:27:00.464Z,19.4
2018-06-11T02:28:01.860Z,19.3
2018-06-11T02:29:03.248Z,19.3
2018-06-11T02:30:04.643Z,19.2
2018-06-11T02:31:06.032Z,19.3
2018-06-11T02:32:07.427Z,19.3
2018-06-11T02:33:08.820Z,19.3
2018-06-11T02:34:10.210Z,19.2
2018-06-11T02:35:11.604Z,19.2
2018-06-11T02:36:13.008Z,19.2
2018-06-11T02:37:14.403Z,19.2
2018-06-11T02:38:15.793Z,19.2
2018-06-11T02:39:17.188Z,19.2
2018-06-11T02:40:18.578Z,19.1
2018-06-11T02:41:19.969Z,19.2
2018-06-11T02:42:21.357Z,19.1
2018-06-11T02:43:22.754Z,19.2
2018-06-11T02:44:24.149Z,19.1
2018-06-11T02:45:25.540Z,19.0
2018-06-11T02:46:26.940Z,19.1
2018-06-11T02:47:28.337Z,19.1
2018-06-11T02:48:29.794Z,19.1
2018-06-11T02:49:31.184Z,19.1
2018-06-11T02:50:32.577Z,19.1
2018-06-11T02:51:33.969Z,19.0
2018-06-11T02:52:35.363Z,18.9
2018-06-11T02:53:36.757Z,19.0
2018-06-11T02:54:38.152Z,18.9
2018-06-11T02:55:39.545Z,18.9
2018-06-11T02:56:40.936Z,19.0
2018-06-11T02:57:42.330Z,19.0
2018-06-11T02:58:43.726Z,18.9
2018-06-11T02:59:45.120Z,19.0
2018-06-11T03:00:46.512Z,18.9
2018-06-11T03:01:47.919Z,18.9
2018-06-11T03:02:49.321Z,18.9
2018-06-11T03:03:50.707Z,18.9
2018-06-11T03:04:52.102Z,18.9
2018-06-11T03:05:53.502Z,18.9
2018-06-11T03:06:54.895Z,18.9
2018-06-11T03:07:56.288Z,18.8
2018-06-11T03:08:57.685Z,18.8
2018-06-11T03:09:59.088Z,18.8
2018-06-11T03:11:00.473Z,18.9
2018-06-11T03:12:01.887Z,18.9
2018-06-11T03:13:03.278Z,18.7
2018-06-11T03:14:04.670Z,18.7
2018-06-11T03:15:06.065Z,18.7
2018-06-11T03:16:07.473Z,18.7
2018-06-11T03:17:08.855Z,18.7
2018-06-11T03:18:10.249Z,18.7
2018-06-11T03:19:11.644Z,18.7
2018-06-11T03:20:13.038Z,18.7
2018-06-11T03:21:14.452Z,18.6
2018-06-11T03:22:15.848Z,18.6
2018-06-11T03:23:17.242Z,18.6
2018-06-11T03:24:18.637Z,18.5
2018-06-11T03:25:20.030Z,18.6
2018-06-11T03:26:21.426Z,18.6
2018-06-11T03:27:22.815Z,18.6
2018-06-11T03:28:24.211Z,18.5
2018-06-11T03:29:25.607Z,18.5
2018-06-11T03:30:27.001Z,18.6
2018-06-11T03:31:28.499Z,18.6
2018-06-11T03:32:29.903Z,18.5
2018-06-11T03:33:31.298Z,18.5
2018-06-11T03:34:32.692Z,18.5
2018-06-11T03:35:34.089Z,18.5
2018-06-11T03:36:35.484Z,18.6
2018-06-11T03:37:36.883Z,18.5
2018-06-11T03:38:38.280Z,18.5
2018-06-11T03:39:39.672Z,18.5
2018-06-11T03:40:41.068Z,18.5
2018-06-11T03:41:42.469Z,18.5
2018-06-11T03:42:43.864Z,18.5
2018-06-11T03:43:45.260Z,18.5
2018-06-11T03:44:46.657Z,18.4
2018-06-11T03:45:48.061Z,18.4
2018-06-11T03:46:49.455Z,18.4
2018-06-11T03:47:50.850Z,18.3
2018-06-11T03:48:52.246Z,18.4
2018-06-11T03:49:53.646Z,18.4
2018-06-11T03:50:55.045Z,18.4
2018-06-11T03:51:56.444Z,18.4
2018-06-11T03:52:57.837Z,18.5
2018-06-11T03:53:59.234Z,18.4
2018-06-11T03:55:00.628Z,18.4
2018-06-11T03:56:02.029Z,18.4
2018-06-11T03:57:03.427Z,18.3
2018-06-11T03:58:04.826Z,18.4
2018-06-11T03:59:06.223Z,18.4
2018-06-11T04:00:07.620Z,18.5
2018-06-11T04:01:09.017Z,18.5
2018-06-11T04:02:10.417Z,18.4
2018-06-11T04:03:11.811Z,18.4
2018-06-11T04:04:13.208Z,18.4
2018-06-11T04:05:14.607Z,18.4
2018-06-11T04:06:16.008Z,18.4
2018-06-11T04:07:17.402Z,18.4
2018-06-11T04:08:18.795Z,18.5
2018-06-11T04:09:20.189Z,18.3
2018-06-11T04:10:21.585Z,18.5
2018-06-11T04:11:22.984Z,18.4
2018-06-11T04:12:24.383Z,18.4
2018-06-11T04:13:25.781Z,18.5
2018-06-11T04:14:27.177Z,18.4
2018-06-11T04:15:28.598Z,18.5
2018-06-11T04:16:30.102Z,18.5
2018-06-11T04:17:31.500Z,18.4
2018-06-11T04:18:32.897Z,18.5
2018-06-11T04:19:34.314Z,18.5
2018-06-11T04:20:35.746Z,18.6
2018-06-11T04:21:37.141Z,18.6
2018-06-11T04:22:38.551Z,18.5
2018-06-11T04:23:39.955Z,18.6
2018-06-11T04:24:41.342Z,18.6
2018-06-11T04:25:42.739Z,18.6
2018-06-11T04:26:44.136Z,18.6
2018-06-11T04:27:45.533Z,18.6
2018-06-11T04:28:46.928Z,18.6
2018-06-11T04:29:48.322Z,18.6
2018-06-11T04:30:49.716Z,18.6
2018-06-11T04:31:51.119Z,18.5
2018-06-11T04:32:52.519Z,18.6
2018-06-11T04:33:53.916Z,18.6
2018-06-11T04:34:55.312Z,18.6
2018-06-11T04:35:56.708Z,18.6
2018-06-11T04:36:58.101Z,18.6
2018-06-11T04:37:59.499Z,18.6
2018-06-11T04:39:00.894Z,18.7
2018-06-11T04:40:02.312Z,18.6
2018-06-11T04:41:03.705Z,18.7
2018-06-11T04:42:05.109Z,18.6
2018-06-11T04:43:06.503Z,18.7
2018-06-11T04:44:07.899Z,18.6
2018-06-11T04:45:09.298Z,18.6
2018-06-11T04:46:10.693Z,18.6
2018-06-11T04:47:12.094Z,18.6
2018-06-11T04:48:13.488Z,18.6
2018-06-11T04:49:14.886Z,18.7
2018-06-11T04:50:16.280Z,18.7
2018-06-11T04:51:17.675Z,18.7
2018-06-11T04:52:19.077Z,18.7
2018-06-11T04:53:20.472Z,18.7
2018-06-11T04:54:21.870Z,18.7
2018-06-11T04:55:23.273Z,18.7
2018-06-11T04:56:24.671Z,18.6
2018-06-11T04:57:26.064Z,18.6
2018-06-11T04:58:27.458Z,18.7
2018-06-11T04:59:28.873Z,18.6
2018-06-11T05:00:30.295Z,18.7
2018-06-11T05:01:31.689Z,18.7
2018-06-11T05:02:33.087Z,18.7
2018-06-11T05:03:34.491Z,18.7
2018-06-11T05:04:35.887Z,18.9
2018-06-11T05:05:37.285Z,18.9
2018-06-11T05:06:38.681Z,18.8
2018-06-11T05:07:40.078Z,18.9
2018-06-11T05:08:41.475Z,18.9
2018-06-11T05:09:42.875Z,18.9
2018-06-11T05:10:44.275Z,18.9
2018-06-11T05:11:45.671Z,19.0
2018-06-11T05:12:47.065Z,19.1
2018-06-11T05:13:48.463Z,19.0
2018-06-11T05:14:49.860Z,19.0
2018-06-11T05:15:51.259Z,19.1
2018-06-11T05:16:52.662Z,19.2
2018-06-11T05:17:54.056Z,19.2
2018-06-11T05:18:55.460Z,19.2
2018-06-11T05:19:56.842Z,19.3
2018-06-11T05:20:58.238Z,19.3
2018-06-11T05:21:59.652Z,19.3
2018-06-11T05:23:01.049Z,19.1
2018-06-11T05:24:02.450Z,19.3
2018-06-11T05:25:03.848Z,19.3
2018-06-11T05:26:05.241Z,19.3
2018-06-11T05:27:06.701Z,19.3
2018-06-11T05:28:08.107Z,19.3
2018-06-11T05:29:09.503Z,19.3
2018-06-11T05:30:10.902Z,19.4
2018-06-11T05:31:12.299Z,19.3
2018-06-11T05:32:13.698Z,19.4
2018-06-11T05:33:15.092Z,19.4
2018-06-11T05:34:16.488Z,19.4
2018-06-11T05:35:17.881Z,19.4
2018-06-11T05:36:19.275Z,19.4
2018-06-11T05:37:20.672Z,19.4
2018-06-11T05:38:22.072Z,19.4
2018-06-11T05:39:23.465Z,19.4
2018-06-11T05:40:24.913Z,19.5
2018-06-11T05:41:26.256Z,19.5
2018-06-11T05:42:27.653Z,19.5
2018-06-11T05:43:29.089Z,19.5
2018-06-11T05:44:30.529Z,19.5
2018-06-11T05:45:31.928Z,19.6
2018-06-11T05:46:33.321Z,19.6
2018-06-11T05:47:34.717Z,19.7
2018-06-11T05:48:36.115Z,19.6
2018-06-11T05:49:37.511Z,19.8
2018-06-11T05:50:38.906Z,19.9
2018-06-11T05:51:40.304Z,19.9
2018-06-11T05:52:41.706Z,19.9
2018-06-11T05:53:43.101Z,20.0
2018-06-11T05:54:44.504Z,20.0
2018-06-11T05:55:45.905Z,20.0
2018-06-11T05:56:47.296Z,19.9
2018-06-11T05:57:48.690Z,19.9
2018-06-11T05:58:50.086Z,19.9
2018-06-11T05:59:51.482Z,19.9
2018-06-11T06:00:52.884Z,19.9
2018-06-11T06:01:54.278Z,19.9
2018-06-11T06:02:55.672Z,19.9
2018-06-11T06:03:57.072Z,19.8
2018-06-11T06:04:58.467Z,19.9
2018-06-11T06:05:59.862Z,19.8
2018-06-11T06:07:01.262Z,19.9
2018-06-11T06:08:02.663Z,19.8
2018-06-11T06:09:04.060Z,19.8
2018-06-11T06:10:05.458Z,19.8
2018-06-11T06:11:06.856Z,19.8
2018-06-11T06:12:08.254Z,19.7
2018-06-11T06:13:09.654Z,19.8
2018-06-11T06:14:11.059Z,19.7
2018-06-11T06:15:12.451Z,19.7
2018-06-11T06:16:13.842Z,19.8
2018-06-11T06:17:15.241Z,19.6
2018-06-11T06:18:16.643Z,19.8
2018-06-11T06:19:18.035Z,19.8
2018-06-11T06:20:19.436Z,19.9
2018-06-11T06:21:20.835Z,19.9
2018-06-11T06:22:22.244Z,20.0
2018-06-11T06:23:23.642Z,20.0
2018-06-11T06:24:25.038Z,20.1
2018-06-11T06:25:26.435Z,20.0
2018-06-11T06:26:27.832Z,20.0
2018-06-11T06:27:29.395Z,20.0
2018-06-11T06:28:30.811Z,20.1
2018-06-11T06:29:32.208Z,20.1
2018-06-11T06:30:33.605Z,20.1
2018-06-11T06:31:35.002Z,20.2
2018-06-11T06:32:36.399Z,20.3
2018-06-11T06:33:37.797Z,20.2
2018-06-11T06:34:39.217Z,20.3
2018-06-11T06:35:40.595Z,20.3
2018-06-11T06:36:41.998Z,20.4
2018-06-11T06:37:43.395Z,20.4
2018-06-11T06:38:44.790Z,20.4
2018-06-11T06:39:46.187Z,20.4
2018-06-11T06:40:47.586Z,20.4
2018-06-11T06:41:48.983Z,20.4
2018-06-11T06:42:50.383Z,20.5
2018-06-11T06:43:51.779Z,20.6
2018-06-11T06:44:53.178Z,20.5
2018-06-11T06:45:54.573Z,20.4
2018-06-11T06:46:55.981Z,20.6
2018-06-11T06:47:57.365Z,20.6
2018-06-11T06:48:58.774Z,20.6
2018-06-11T06:50:00.174Z,20.7
2018-06-11T06:51:01.572Z,20.7
2018-06-11T06:52:03.000Z,20.8
2018-06-11T06:53:04.397Z,20.8
2018-06-11T06:54:05.811Z,20.7
2018-06-11T06:55:07.204Z,20.8
2018-06-11T06:56:08.604Z,20.9
2018-06-11T06:57:10.010Z,21.0
2018-06-11T06:58:11.406Z,21.0
2018-06-11T06:59:12.803Z,21.1
2018-06-11T07:00:14.199Z,21.2
2018-06-11T07:01:15.595Z,21.2
2018-06-11T07:02:17.042Z,21.3
2018-06-11T07:03:18.453Z,21.4
2018-06-11T07:04:19.857Z,21.3
2018-06-11T07:05:21.247Z,21.4
2018-06-11T07:06:22.642Z,21.5
2018-06-11T07:07:24.037Z,21.5
2018-06-11T07:08:25.435Z,21.7
2018-06-11T07:09:26.832Z,21.7
2018-06-11T07:10:28.246Z,21.8
2018-06-11T07:11:29.721Z,21.9
2018-06-11T07:12:31.118Z,22.0
2018-06-11T07:13:32.519Z,22.0
2018-06-11T07:14:33.911Z,22.1
2018-06-11T07:15:35.310Z,22.2
2018-06-11T07:16:36.708Z,22.2
2018-06-11T07:17:38.111Z,22.3
2018-06-11T07:18:39.513Z,22.3
2018-06-11T07:19:40.912Z,22.3
2018-06-11T07:20:42.315Z,22.4
2018-06-11T07:21:43.709Z,22.4
2018-06-11T07:22:45.108Z,22.5
2018-06-11T07:23:46.512Z,22.5
2018-06-11T07:24:47.904Z,22.5
2018-06-11T07:25:49.311Z,22.5
2018-06-11T07:26:50.717Z,22.5
2018-06-11T07:27:52.114Z,22.5
2018-06-11T07:28:53.507Z,22.5
2018-06-11T07:29:54.913Z,22.5
2018-06-11T07:30:56.313Z,22.6
2018-06-11T07:31:57.717Z,22.7
2018-06-11T07:32:59.119Z,22.8
2018-06-11T07:34:00.524Z,23.0
2018-06-11T07:35:01.982Z,23.0
2018-06-11T07:36:03.316Z,23.1
2018-06-11T07:37:04.717Z,23.1
2018-06-11T07:38:06.116Z,23.1
2018-06-11T07:39:07.516Z,23.0
2018-06-11T07:40:08.919Z,23.1
2018-06-11T07:41:10.317Z,23.1
2018-06-11T07:42:11.714Z,23.1
2018-06-11T07:43:13.112Z,23.2
2018-06-11T07:44:14.510Z,23.2
2018-06-11T07:45:15.910Z,23.3
2018-06-11T07:46:17.310Z,23.4
2018-06-11T07:47:18.713Z,23.4
2018-06-11T07:48:20.111Z,23.6
2018-06-11T07:49:21.509Z,23.6
2018-06-11T07:50:22.907Z,23.7
2018-06-11T07:51:24.308Z,23.7
2018-06-11T07:52:25.705Z,23.8
2018-06-11T07:53:27.122Z,23.8
2018-06-11T07:54:28.618Z,23.8
2018-06-11T07:55:30.028Z,23.7
2018-06-11T07:56:31.419Z,23.7
2018-06-11T07:57:32.820Z,23.7
2018-06-11T07:58:34.224Z,23.6
2018-06-11T07:59:35.618Z,23.6
2018-06-11T08:00:37.015Z,23.5
2018-06-11T08:01:38.418Z,23.5
2018-06-11T08:02:39.821Z,23.6
2018-06-11T08:03:41.221Z,23.5
2018-06-11T08:04:42.621Z,23.4
2018-06-11T08:05:44.016Z,23.3
2018-06-11T08:06:45.414Z,23.2
2018-06-11T08:07:46.816Z,23.3
2018-06-11T08:08:48.216Z,23.3
2018-06-11T08:09:49.617Z,23.4
2018-06-11T08:10:51.015Z,23.4
2018-06-11T08:11:52.412Z,23.5
2018-06-11T08:12:53.814Z,23.4
2018-06-11T08:13:55.211Z,23.5
2018-06-11T08:14:56.609Z,23.5
2018-06-11T08:15:58.008Z,23.6
2018-06-11T08:16:59.408Z,23.7
2018-06-11T08:18:00.811Z,23.7
2018-06-11T08:19:02.209Z,23.7
2018-06-11T08:20:03.639Z,23.7
2018-06-11T08:21:05.011Z,23.8
2018-06-11T08:22:06.414Z,23.7
2018-06-11T08:23:07.810Z,23.6
2018-06-11T08:24:09.212Z,23.7
2018-06-11T08:25:10.610Z,23.7
2018-06-11T08:26:12.009Z,23.8
2018-06-11T08:27:13.407Z,23.8
2018-06-11T08:28:14.802Z,23.8
2018-06-11T08:29:16.207Z,23.8
2018-06-11T08:30:17.608Z,23.8
2018-06-11T08:31:19.006Z,23.9
2018-06-11T08:32:20.407Z,23.9
2018-06-11T08:33:21.808Z,23.9
2018-06-11T08:34:23.208Z,24.1
2018-06-11T08:35:24.610Z,24.2
2018-06-11T08:36:26.018Z,24.3
2018-06-11T08:37:27.467Z,24.4
2018-06-11T08:38:28.872Z,24.5
2018-06-11T08:39:30.267Z,24.4
2018-06-11T08:40:31.659Z,24.3
2018-06-11T08:41:33.073Z,24.4
2018-06-11T08:42:34.464Z,24.5
2018-06-11T08:43:35.865Z,24.4
2018-06-11T08:44:37.263Z,24.2
2018-06-11T08:45:38.666Z,24.2
2018-06-11T08:46:40.069Z,24.3
2018-06-11T08:47:41.461Z,24.4
2018-06-11T08:48:42.862Z,24.4
2018-06-11T08:49:44.263Z,24.6
2018-06-11T08:50:45.661Z,24.7
2018-06-11T08:51:47.061Z,24.7
2018-06-11T08:52:48.463Z,24.7
2018-06-11T08:53:49.860Z,24.5
2018-06-11T08:54:51.260Z,24.5
2018-06-11T08:55:52.658Z,24.4
2018-06-11T08:56:54.058Z,24.3
2018-06-11T08:57:55.458Z,24.2
2018-06-11T08:58:56.859Z,24.2
2018-06-11T08:59:58.299Z,24.2
2018-06-11T09:00:59.655Z,24.0
2018-06-11T09:02:01.064Z,24.2
2018-06-11T09:03:02.463Z,24.2
2018-06-11T09:04:03.862Z,24.2
2018-06-11T09:05:05.266Z,24.2
2018-06-11T09:06:06.663Z,24.1
2018-06-11T09:07:08.095Z,24.1
2018-06-11T09:08:09.465Z,23.9
2018-06-11T09:09:10.865Z,23.9
2018-06-11T09:10:12.263Z,23.8
2018-06-11T09:11:13.668Z,23.8
2018-06-11T09:12:15.064Z,23.8
2018-06-11T09:13:16.465Z,23.8
2018-06-11T09:14:17.870Z,23.8
2018-06-11T09:15:19.270Z,24.0
2018-06-11T09:16:20.669Z,24.1
2018-06-11T09:17:22.068Z,24.1
2018-06-11T09:18:23.624Z,24.2
2018-06-11T09:19:24.867Z,24.2
2018-06-11T09:20:26.335Z,24.3
2018-06-11T09:21:27.715Z,24.4
2018-06-11T09:22:29.112Z,24.5
2018-06-11T09:23:30.512Z,24.5
2018-06-11T09:24:31.921Z,24.5
2018-06-11T09:25:33.323Z,24.6
2018-06-11T09:26:34.726Z,24.7
2018-06-11T09:27:36.125Z,24.7
2018-06-11T09:28:37.526Z,24.7
2018-06-11T09:29:38.928Z,24.6
2018-06-11T09:30:40.330Z,24.8
2018-06-11T09:31:41.729Z,24.7
2018-06-11T09:32:43.136Z,24.7
2018-06-11T09:33:44.535Z,24.8
2018-06-11T09:34:45.951Z,25.0
2018-06-11T09:35:47.351Z,25.0
2018-06-11T09:36:48.748Z,25.1
2018-06-11T09:37:50.153Z,25.1
2018-06-11T09:38:51.544Z,25.3
2018-06-11T09:39:52.955Z,25.1
2018-06-11T09:40:54.359Z,25.2
2018-06-11T09:41:55.757Z,25.3
2018-06-11T09:42:57.160Z,25.3
2018-06-11T09:43:58.741Z,25.4
2018-06-11T09:44:59.955Z,25.3
2018-06-11T09:46:01.356Z,25.3
2018-06-11T09:47:02.758Z,25.2
2018-06-11T09:48:04.160Z,25.2
2018-06-11T09:49:05.573Z,25.3
2018-06-11T09:50:06.963Z,25.2
2018-06-11T09:51:08.362Z,25.2
2018-06-11T09:52:09.764Z,25.2
2018-06-11T09:53:11.161Z,25.3
2018-06-11T09:54:12.562Z,25.3
2018-06-11T09:55:13.961Z,25.2
2018-06-11T09:56:15.360Z,25.1
2018-06-11T09:57:16.780Z,25.2
2018-06-11T09:58:18.201Z,25.2
2018-06-11T09:59:19.605Z,25.1
2018-06-11T10:00:21.010Z,25.1
2018-06-11T10:01:22.420Z,25.1
2018-06-11T10:02:23.823Z,25.1
2018-06-11T10:03:25.251Z,25.3
2018-06-11T10:04:26.633Z,25.4
2018-06-11T10:05:28.043Z,25.4
2018-06-11T10:06:29.450Z,25.6
2018-06-11T10:07:30.854Z,25.6
2018-06-11T10:08:32.250Z,25.3
2018-06-11T10:09:33.653Z,25.3
2018-06-11T10:10:35.057Z,25.1
2018-06-11T10:11:36.460Z,25.2
2018-06-11T10:12:37.858Z,25.1
2018-06-11T10:13:39.284Z,25.2
2018-06-11T10:14:40.662Z,25.2
2018-06-11T10:15:42.062Z,25.2
2018-06-11T10:16:43.466Z,25.6
2018-06-11T10:17:44.872Z,25.7
2018-06-11T10:18:46.272Z,26.0
2018-06-11T10:19:47.676Z,26.2
2018-06-11T10:20:49.073Z,26.5
2018-06-11T10:21:50.473Z,26.7
2018-06-11T10:22:51.875Z,26.7
2018-06-11T10:23:53.279Z,26.9
2018-06-11T10:24:54.730Z,27.0
2018-06-11T10:25:56.088Z,27.0
2018-06-11T10:26:57.487Z,27.1
2018-06-11T10:27:58.885Z,27.2
2018-06-11T10:29:00.285Z,27.3
2018-06-11T10:30:01.692Z,27.1
2018-06-11T10:31:03.087Z,27.1
2018-06-11T10:32:04.487Z,27.2
2018-06-11T10:33:05.892Z,27.3
2018-06-11T10:34:07.295Z,27.2
2018-06-11T10:35:08.697Z,27.3
2018-06-11T10:36:10.099Z,27.5
2018-06-11T10:37:11.507Z,27.7
2018-06-11T10:38:12.901Z,27.9
2018-06-11T10:39:14.355Z,28.0
2018-06-11T10:40:15.709Z,27.9
2018-06-11T10:41:17.106Z,27.9
2018-06-11T10:42:18.511Z,27.9
2018-06-11T10:43:19.912Z,27.9
2018-06-11T10:44:21.315Z,28.0
2018-06-11T10:45:22.718Z,27.8
2018-06-11T10:46:24.120Z,27.5
2018-06-11T10:47:25.562Z,27.6
2018-06-11T10:48:26.982Z,27.7
2018-06-11T10:49:28.384Z,27.9
2018-06-11T10:50:29.789Z,28.1
2018-06-11T10:51:31.190Z,28.3
2018-06-11T10:52:32.593Z,28.3
2018-06-11T10:53:34.002Z,28.4
2018-06-11T10:54:35.426Z,28.2
2018-06-11T10:55:36.867Z,28.4
2018-06-11T10:56:38.293Z,28.5
2018-06-11T10:57:39.702Z,28.6
2018-06-11T10:58:41.096Z,28.8
2018-06-11T10:59:42.500Z,28.8
2018-06-11T11:00:43.913Z,28.7
2018-06-11T11:01:45.318Z,28.5
2018-06-11T11:02:46.719Z,28.4
2018-06-11T11:03:48.160Z,28.2
2018-06-11T11:04:49.530Z,28.2
2018-06-11T11:05:50.933Z,28.2
2018-06-11T11:06:52.342Z,28.4
2018-06-11T11:07:53.763Z,28.5
2018-06-11T11:08:55.250Z,28.6
2018-06-11T11:09:56.656Z,28.7
2018-06-11T11:10:58.062Z,28.7
2018-06-11T11:11:59.465Z,28.8
2018-06-11T11:13:00.897Z,28.9
2018-06-11T11:14:02.285Z,29.1
2018-06-11T11:15:03.722Z,29.3
2018-06-11T11:16:05.121Z,29.7
2018-06-11T11:17:06.525Z,29.8
2018-06-11T11:18:07.927Z,29.9
2018-06-11T11:19:09.331Z,29.8
2018-06-11T11:20:10.735Z,30.0
2018-06-11T11:21:12.144Z,30.1
2018-06-11T11:22:13.546Z,30.1
2018-06-11T11:23:14.954Z,30.1
2018-06-11T11:24:16.357Z,30.3
2018-06-11T11:25:17.759Z,30.3
2018-06-11T11:26:19.162Z,30.5
2018-06-11T11:27:20.569Z,30.6
2018-06-11T11:28:21.971Z,30.9
2018-06-11T11:29:23.383Z,31.1
2018-06-11T11:30:24.830Z,31.1
2018-06-11T11:31:26.230Z,31.3
2018-06-11T11:32:27.633Z,31.4
2018-06-11T11:33:29.036Z,31.5
2018-06-11T11:34:30.447Z,31.5
2018-06-11T11:35:31.853Z,31.3
2018-06-11T11:36:33.260Z,31.4
2018-06-11T11:37:34.676Z,31.5
2018-06-11T11:38:36.078Z,31.5
2018-06-11T11:39:37.491Z,31.7
2018-06-11T11:40:38.905Z,31.9
2018-06-11T11:41:40.314Z,32.0
2018-06-11T11:42:41.717Z,32.2
2018-06-11T11:43:43.125Z,32.3
2018-06-11T11:44:44.537Z,32.4
2018-06-11T11:45:45.942Z,32.4
2018-06-11T11:46:47.346Z,32.6
2018-06-11T11:47:48.754Z,32.7
2018-06-11T11:48:50.160Z,32.8
2018-06-11T11:49:51.571Z,32.8
2018-06-11T11:50:52.985Z,32.8
2018-06-11T11:51:54.393Z,32.6
2018-06-11T11:52:55.797Z,32.5
2018-06-11T11:53:57.207Z,32.7
2018-06-11T11:54:58.609Z,32.8
2018-06-11T11:56:00.018Z,32.6
2018-06-11T11:57:01.436Z,32.5
2018-06-11T11:58:02.847Z,32.5
2018-06-11T11:59:04.254Z,32.0
2018-06-11T12:00:05.658Z,31.7
2018-06-11T12:01:07.065Z,31.5
2018-06-11T12:02:08.467Z,31.5
2018-06-11T12:03:09.874Z,31.4
2018-06-11T12:04:11.280Z,31.3
2018-06-11T12:05:12.683Z,31.2
2018-06-11T12:06:14.099Z,31.0
2018-06-11T12:07:15.501Z,30.9
2018-06-11T12:08:16.906Z,30.7
2018-06-11T12:09:18.309Z,30.6
2018-06-11T12:10:19.714Z,30.6
2018-06-11T12:11:21.118Z,30.4
2018-06-11T12:12:22.522Z,30.2
2018-06-11T12:13:24.030Z,29.9
2018-06-11T12:14:25.432Z,29.7
2018-06-11T12:15:26.836Z,29.7
2018-06-11T12:16:28.235Z,29.6
2018-06-11T12:17:29.639Z,29.5
2018-06-11T12:18:31.042Z,29.4
2018-06-11T12:19:32.444Z,29.3
2018-06-11T12:20:33.850Z,29.2
2018-06-11T12:21:35.254Z,29.2
2018-06-11T12:22:36.706Z,29.2
2018-06-11T12:23:38.121Z,29.2
2018-06-11T12:24:39.521Z,29.3
2018-06-11T12:25:40.924Z,29.5
2018-06-11T12:26:42.328Z,29.6
2018-06-11T12:27:43.741Z,29.7
2018-06-11T12:28:45.179Z,29.7
2018-06-11T12:29:46.582Z,29.8
2018-06-11T12:30:47.990Z,29.6
2018-06-11T12:31:49.390Z,29.7
2018-06-11T12:32:50.793Z,29.6
2018-06-11T12:33:52.199Z,29.6
2018-06-11T12:34:53.606Z,29.7
2018-06-11T12:35:55.008Z,29.5
2018-06-11T12:36:56.414Z,29.6
2018-06-11T12:37:57.818Z,29.6
2018-06-11T12:38:59.223Z,29.6
2018-06-11T12:40:00.631Z,29.3
2018-06-11T12:41:02.041Z,29.2
2018-06-11T12:42:03.448Z,29.2
2018-06-11T12:43:04.850Z,29.2
2018-06-11T12:44:06.250Z,29.2
2018-06-11T12:45:07.655Z,29.3
2018-06-11T12:46:09.055Z,29.3
2018-06-11T12:47:10.464Z,29.3
2018-06-11T12:48:11.863Z,29.3
2018-06-11T12:49:13.275Z,29.4
2018-06-11T12:50:14.682Z,29.4
2018-06-11T12:51:16.084Z,29.5
2018-06-11T12:52:17.489Z,29.5
2018-06-11T12:53:18.892Z,29.6
2018-06-11T12:54:20.297Z,29.5
2018-06-11T12:55:21.705Z,29.4
2018-06-11T12:56:23.191Z,29.4
2018-06-11T12:57:24.567Z,29.3
2018-06-11T12:58:25.972Z,29.3
2018-06-11T12:59:27.369Z,29.3
2018-06-11T13:00:28.775Z,29.3
2018-06-11T13:01:30.218Z,29.2
2018-06-11T13:02:31.581Z,29.1
2018-06-11T13:03:32.983Z,29.0
2018-06-11T13:04:34.388Z,28.9
2018-06-11T13:05:35.788Z,28.7
2018-06-11T13:06:37.194Z,28.8
2018-06-11T13:07:38.600Z,28.9
2018-06-11T13:08:39.996Z,28.9
2018-06-11T13:09:41.399Z,28.7
2018-06-11T13:10:42.806Z,28.8
2018-06-11T13:11:44.204Z,28.9
2018-06-11T13:12:45.604Z,28.7
2018-06-11T13:13:47.006Z,28.4
2018-06-11T13:14:48.409Z,28.5
2018-06-11T13:15:49.810Z,28.4
2018-06-11T13:16:51.236Z,28.5
2018-06-11T13:17:52.640Z,28.3
2018-06-11T13:18:54.040Z,28.1
2018-06-11T13:19:55.436Z,28.1
2018-06-11T13:20:56.841Z,28.0
2018-06-11T13:21:58.242Z,28.0
2018-06-11T13:22:59.646Z,28.0
2018-06-11T13:24:01.046Z,27.7
2018-06-11T13:25:02.450Z,27.6
2018-06-11T13:26:03.851Z,27.5
2018-06-11T13:27:05.251Z,27.5
2018-06-11T13:28:06.653Z,27.4
2018-06-11T13:29:08.058Z,27.3
2018-06-11T13:30:09.474Z,27.3
2018-06-11T13:31:10.881Z,27.0
2018-06-11T13:32:12.282Z,26.9
2018-06-11T13:33:13.681Z,27.0
2018-06-11T13:34:15.083Z,27.0
2018-06-11T13:35:16.520Z,27.0
2018-06-11T13:36:17.922Z,27.1
2018-06-11T13:37:19.327Z,27.0